Time;durP1;ratioP1;P1;durP2;ratioP2;P2;SDS_P1;SDS_P2;PMS_P1;PMS_P2;Temp;Humidity;BMP_temperature;BMP_pressure;BME280_temperature;BME280_humidity;BME280_pressure;Samples;Min_cycle;Max_cycle;Signal;HPM_P1;HPM_P2
2022/08/29 00:00:16;;;;;;;;;;;;;;;17.98;45.15;101065.66;4981860;28;6909;-74
2022/08/29 00:02:42;;;;;;;;;;;;;;;17.92;45.67;101074.16;4978579;28;11163;-74
2022/08/29 00:05:08;;;;;;;;;;;;;;;17.88;45.63;101070.59;4980375;28;6787;-74
2022/08/29 00:07:35;;;;;;;;;;;;;;;17.82;45.37;101067.81;4977900;28;6978;-74
2022/08/29 00:10:02;;;;;;;;;;;;;;;17.77;46.19;101056.44;4977242;28;6994;-74
2022/08/29 00:12:28;;;;;;;;;;;;;;;17.72;46.31;101052.81;4980882;28;6976;-74
2022/08/29 00:14:54;;;;;;;;;;;;;;;17.69;46.03;101065.69;4977947;28;6934;-74
2022/08/29 00:17:19;;;;;;;;;;;;;;;17.63;46.16;101064.66;4961921;28;6948;-74
2022/08/29 00:19:45;;;;;;;;;;;;;;;17.59;46.30;101064.53;4982580;28;6776;-74
2022/08/29 00:22:10;;;;;;;;;;;;;;;17.54;46.61;101063.53;4962571;28;7114;-74
2022/08/29 00:24:36;;;;;;;;;;;;;;;17.47;46.16;101068.53;4979010;28;6860;-74
2022/08/29 00:27:02;;;;;;;;;;;;;;;17.45;46.81;101066.72;4980999;28;6776;-74
2022/08/29 00:29:28;;;;;;;;;;;;;;;17.41;46.81;101081.28;4983142;28;6800;-74
2022/08/29 00:31:54;;;;;;;;;;;;;;;17.38;46.69;101072.53;4980796;28;7113;-74
2022/08/29 00:34:19;;;;;;;;;;;;;;;17.33;46.87;101068.09;4984803;28;6843;-74
2022/08/29 00:36:45;;;;;;;;;;;;;;;17.30;46.67;101072.31;4978742;28;7040;-74
2022/08/29 00:39:11;;;;;;;;;;;;;;;17.28;47.14;101071.38;4970846;28;6959;-74
2022/08/29 00:41:36;;;;;;;;;;;;;;;17.23;46.75;101078.13;4975641;28;7002;-74
2022/08/29 00:44:04;;;;;;;;;;;;;;;17.17;47.37;101076.22;4986353;28;6779;-74
2022/08/29 00:46:39;;;;;;;;;;;;;;;17.12;47.52;101077.78;4984988;28;6816;-74
2022/08/29 00:49:38;;;;;;;;;;;;;;;17.06;47.54;101074.16;4985111;28;7122;-74
2022/08/29 00:52:40;;;;;;;;;;;;;;;17.01;47.58;101073.16;4983714;28;6951;-74
2022/08/29 00:55:12;;;;;;;;;;;;;;;16.97;47.95;101072.97;4947731;28;7349;-74
2022/08/29 00:57:45;;;;;;;;;;;;;;;16.92;47.82;101072.81;4967070;28;7035;-74
2022/08/29 01:00:15;;;;;;;;;;;;;;;16.89;48.48;101080.47;4979333;28;7682;-74
2022/08/29 01:02:41;;;;;;;;;;;;;;;16.83;48.44;101075.09;4980112;28;11189;-74
2022/08/29 01:05:11;;;;;;;;;;;;;;;16.79;48.14;101077.56;4982060;28;6804;-74
2022/08/29 01:07:38;;;;;;;;;;;;;;;16.75;48.21;101083.50;4968121;28;7414;-74
2022/08/29 01:10:06;;;;;;;;;;;;;;;16.71;48.83;101086.81;4969653;28;6791;-74
2022/08/29 01:12:34;;;;;;;;;;;;;;;16.67;48.59;101082.34;4982987;28;6780;-74
2022/08/29 01:15:11;;;;;;;;;;;;;;;16.63;48.67;101081.34;4965099;28;7253;-74
2022/08/29 01:17:45;;;;;;;;;;;;;;;16.60;48.79;101094.19;4981870;28;6808;-74
2022/08/29 01:20:33;;;;;;;;;;;;;;;16.58;49.02;101084.63;4985053;28;6951;-74
2022/08/29 01:23:19;;;;;;;;;;;;;;;16.55;49.35;101085.38;4983203;28;7515;-74
2022/08/29 01:25:49;;;;;;;;;;;;;;;16.52;49.25;101090.47;4984025;28;6993;-74
2022/08/29 01:28:24;;;;;;;;;;;;;;;16.50;49.57;101087.81;4969856;28;7416;-74
2022/08/29 01:31:27;;;;;;;;;;;;;;;16.48;49.82;101084.31;4963497;28;6979;-74
2022/08/29 01:33:57;;;;;;;;;;;;;;;16.47;49.91;101079.09;4960422;28;7204;-74
2022/08/29 01:36:46;;;;;;;;;;;;;;;16.45;49.69;101080.72;4981276;28;7188;-74
2022/08/29 01:39:13;;;;;;;;;;;;;;;16.43;49.95;101084.97;4980299;28;6995;-74
2022/08/29 01:41:40;;;;;;;;;;;;;;;16.40;49.56;101082.28;4986572;28;10140;-74
2022/08/29 01:44:16;;;;;;;;;;;;;;;16.38;50.11;101089.97;4982716;28;6800;-74
2022/08/29 01:46:42;;;;;;;;;;;;;;;16.36;49.99;101089.06;4984622;28;6800;-74
2022/08/29 01:49:10;;;;;;;;;;;;;;;16.34;50.16;101085.53;4982783;28;6909;-74
2022/08/29 01:51:36;;;;;;;;;;;;;;;16.33;50.09;101084.66;4967424;28;7751;-74
2022/08/29 01:54:07;;;;;;;;;;;;;;;16.32;50.33;101088.06;4978012;28;7014;-74
2022/08/29 01:56:37;;;;;;;;;;;;;;;16.30;50.39;101087.13;4978615;28;6984;-74
2022/08/29 01:59:07;;;;;;;;;;;;;;;16.28;49.99;101091.38;4947026;28;7317;-74
2022/08/29 02:01:42;;;;;;;;;;;;;;;16.25;50.43;101091.25;4963184;28;7216;-74
2022/08/29 02:04:08;;;;;;;;;;;;;;;16.21;50.63;101092.84;4982750;28;6876;-74
2022/08/29 02:06:35;;;;;;;;;;;;;;;16.18;50.81;101086.72;4980955;28;6943;-74
2022/08/29 02:09:04;;;;;;;;;;;;;;;16.13;51.20;101089.13;4968069;28;6820;-74
2022/08/29 02:11:31;;;;;;;;;;;;;;;16.11;51.14;101083.00;4977440;28;7002;-74
2022/08/29 02:13:58;;;;;;;;;;;;;;;16.10;51.35;101092.47;4982488;28;7089;-74
2022/08/29 02:16:26;;;;;;;;;;;;;;;16.07;51.23;101082.00;4980809;28;6821;-74
2022/08/29 02:18:53;;;;;;;;;;;;;;;16.05;51.60;101088.81;4962968;28;7252;-74
2022/08/29 02:21:23;;;;;;;;;;;;;;;16.04;51.66;101084.47;4970605;28;6835;-74
2022/08/29 02:23:51;;;;;;;;;;;;;;;16.04;52.64;101087.06;4967601;28;6800;-74
2022/08/29 02:26:19;;;;;;;;;;;;;;;16.06;52.58;101084.56;4984570;28;6788;-74
2022/08/29 02:28:45;;;;;;;;;;;;;;;16.06;52.65;101081.97;4977542;28;6808;-74
2022/08/29 02:31:11;;;;;;;;;;;;;;;16.05;52.66;101073.31;4980067;28;7307;-74
2022/08/29 02:33:38;;;;;;;;;;;;;;;16.07;52.88;101075.97;4981590;28;6970;-74
2022/08/29 02:36:06;;;;;;;;;;;;;;;16.06;52.75;101084.56;4980250;28;6792;-74
2022/08/29 02:38:32;;;;;;;;;;;;;;;16.07;52.78;101083.72;4979628;28;7172;-74
2022/08/29 02:40:58;;;;;;;;;;;;;;;16.06;52.48;101088.00;4976277;28;6814;-74
2022/08/29 02:43:25;;;;;;;;;;;;;;;16.06;52.98;101084.56;4979964;28;6776;-74
2022/08/29 02:45:51;;;;;;;;;;;;;;;16.07;53.59;101084.59;4963947;28;6994;-74
2022/08/29 02:48:17;;;;;;;;;;;;;;;16.11;53.49;101083.00;4978401;28;6784;-74
2022/08/29 02:50:50;;;;;;;;;;;;;;;16.11;53.33;101077.81;4945871;28;6968;-74
2022/08/29 02:53:20;;;;;;;;;;;;;;;16.14;53.56;101067.59;4981145;28;6796;-74
2022/08/29 02:55:47;;;;;;;;;;;;;;;16.17;53.38;101064.22;4968078;28;6808;-74
2022/08/29 02:58:14;;;;;;;;;;;;;;;16.20;53.33;101067.81;4964829;28;7237;-74
2022/08/29 03:00:40;;;;;;;;;;;;;;;16.22;53.62;101071.34;4976689;28;6800;-74
2022/08/29 03:03:07;;;;;;;;;;;;;;;16.25;53.91;101070.56;4980220;28;7034;-74
2022/08/29 03:05:35;;;;;;;;;;;;;;;16.28;53.67;101069.78;4983674;28;6968;-74
2022/08/29 03:08:06;;;;;;;;;;;;;;;16.31;53.44;101067.31;4983015;28;6980;-74
2022/08/29 03:10:32;;;;;;;;;;;;;;;16.32;53.20;101064.78;4964890;28;6796;-74
2022/08/29 03:12:57;;;;;;;;;;;;;;;16.35;53.30;101071.78;4980333;28;7000;-74
2022/08/29 03:15:23;;;;;;;;;;;;;;;16.35;52.70;101066.59;4983128;28;7168;-74
2022/08/29 03:17:49;;;;;;;;;;;;;;;16.36;52.73;101065.78;4978370;28;6783;-74
2022/08/29 03:20:21;;;;;;;;;;;;;;;16.35;52.42;101066.59;4964404;28;6966;-74
2022/08/29 03:22:48;;;;;;;;;;;;;;;16.33;52.24;101063.94;4982211;28;6824;-74
2022/08/29 03:25:15;;;;;;;;;;;;;;;16.31;52.67;101064.72;4982038;28;6788;-74
2022/08/29 03:27:41;;;;;;;;;;;;;;;16.28;52.47;101067.22;4936851;28;7245;-74
2022/08/29 03:30:11;;;;;;;;;;;;;;;16.25;52.42;101057.63;4972019;28;6808;-74
2022/08/29 03:32:38;;;;;;;;;;;;;;;16.21;52.25;101064.41;4974428;28;6816;-74
2022/08/29 03:35:05;;;;;;;;;;;;;;;16.18;52.37;101061.72;4967281;28;7109;-74
2022/08/29 03:37:31;;;;;;;;;;;;;;;16.14;52.47;101061.53;4980950;28;6956;-74
2022/08/29 03:39:57;;;;;;;;;;;;;;;16.11;52.55;101062.31;4962563;28;7212;-74
2022/08/29 03:42:23;;;;;;;;;;;;;;;16.05;52.80;101055.22;4958975;28;6981;-73
2022/08/29 03:44:48;;;;;;;;;;;;;;;16.02;52.56;101054.22;4965567;28;7543;-72
2022/08/29 03:47:14;;;;;;;;;;;;;;;15.98;52.70;101057.53;4954881;28;7230;-74
2022/08/29 03:49:40;;;;;;;;;;;;;;;15.92;52.14;101056.47;4976916;28;6844;-74
2022/08/29 03:52:08;;;;;;;;;;;;;;;15.89;52.45;101058.91;4976233;28;7252;-74
2022/08/29 03:54:35;;;;;;;;;;;;;;;15.84;52.69;101060.47;4978620;28;6788;-74
2022/08/29 03:57:05;;;;;;;;;;;;;;;15.79;52.99;101060.31;4959383;28;7064;-74
2022/08/29 03:59:31;;;;;;;;;;;;;;;15.75;52.93;101065.31;4979780;28;7226;-74
2022/08/29 04:01:57;;;;;;;;;;;;;;;15.72;53.07;101063.47;4972586;28;7242;-74
2022/08/29 04:07:12;;;;;;;;;;;;;;;15.64;52.82;101070.06;4971605;28;7188;-74
2022/08/29 04:09:39;;;;;;;;;;;;;;;15.62;53.42;101066.53;4974226;28;6940;-74
2022/08/29 04:12:07;;;;;;;;;;;;;;;15.59;53.37;101061.22;4956622;28;6804;-74
2022/08/29 04:14:34;;;;;;;;;;;;;;;15.57;53.07;101066.34;4969857;28;7746;-74
2022/08/29 04:17:00;;;;;;;;;;;;;;;15.55;52.98;101071.47;4978085;28;6824;-74
2022/08/29 04:19:26;;;;;;;;;;;;;;;15.55;53.83;101070.59;4974904;28;8726;-74
2022/08/29 04:21:51;;;;;;;;;;;;;;;15.54;53.64;101068.81;4978207;28;7895;-74
2022/08/29 04:24:19;;;;;;;;;;;;;;;15.54;53.21;101072.28;4982650;28;6792;-74
2022/08/29 04:26:45;;;;;;;;;;;;;;;15.54;53.71;101074.88;4983027;28;6992;-74
2022/08/29 04:29:12;;;;;;;;;;;;;;;15.55;53.83;101080.94;4969223;28;6951;-74
2022/08/29 04:31:40;;;;;;;;;;;;;;;15.55;53.83;101070.59;4975190;28;7571;-74
2022/08/29 04:34:10;;;;;;;;;;;;;;;15.57;54.12;101068.94;4974468;28;6988;-74
2022/08/29 04:36:40;;;;;;;;;;;;;;;15.58;54.26;101077.56;4980196;28;7044;-74
2022/08/29 04:39:07;;;;;;;;;;;;;;;15.57;54.37;101076.69;4962969;28;7012;-74
2022/08/29 04:41:34;;;;;;;;;;;;;;;15.57;53.75;101074.09;4972051;28;7612;-74
2022/08/29 04:44:01;;;;;;;;;;;;;;;15.59;54.24;101075.03;4957384;28;6816;-74
2022/08/29 04:46:29;;;;;;;;;;;;;;;15.59;53.83;101075.03;4977147;28;7053;-74
2022/08/29 04:48:54;;;;;;;;;;;;;;;15.59;53.96;101082.78;4977771;28;7039;-74
2022/08/29 04:51:21;;;;;;;;;;;;;;;15.61;54.23;101085.44;4967334;28;7298;-74
2022/08/29 04:53:50;;;;;;;;;;;;;;;15.62;54.46;101082.91;4974347;28;6796;-74
2022/08/29 04:56:17;;;;;;;;;;;;;;;15.65;54.23;101087.31;4975498;28;6800;-74
2022/08/29 04:58:43;;;;;;;;;;;;;;;15.67;53.99;101081.38;4960065;28;6792;-75
2022/08/29 05:01:23;;;;;;;;;;;;;;;15.70;53.81;101085.81;4974411;28;6947;-74
2022/08/29 05:03:52;;;;;;;;;;;;;;;15.72;54.24;101080.66;4957405;28;6961;-74
2022/08/29 05:06:20;;;;;;;;;;;;;;;15.75;53.70;101081.66;4961949;28;7059;-74
2022/08/29 05:08:47;;;;;;;;;;;;;;;15.76;54.13;101078.25;4960705;28;6971;-74
2022/08/29 05:11:18;;;;;;;;;;;;;;;15.79;54.36;101072.31;4978273;28;7069;-74
2022/08/29 05:13:46;;;;;;;;;;;;;;;15.82;54.76;101087.94;4966841;28;6980;-74
2022/08/29 05:16:14;;;;;;;;;;;;;;;15.88;54.08;101087.28;4974815;28;7054;-74
2022/08/29 05:18:43;;;;;;;;;;;;;;;15.92;54.26;101090.06;4966818;28;7044;-74
2022/08/29 05:21:09;;;;;;;;;;;;;;;16.00;54.37;101099.81;4946885;28;7018;-74
2022/08/29 05:23:34;;;;;;;;;;;;;;;16.06;54.74;101094.88;4979147;28;7038;-74
2022/08/29 05:26:03;;;;;;;;;;;;;;;16.17;55.09;101098.75;4984557;28;6779;-74
2022/08/29 05:28:34;;;;;;;;;;;;;;;16.27;54.51;101093.91;4957433;28;6959;-74
2022/08/29 05:31:00;;;;;;;;;;;;;;;16.38;55.11;101100.34;4980823;28;6856;-74
2022/08/29 05:33:26;;;;;;;;;;;;;;;16.48;54.82;101096.38;4980471;28;6963;-74
2022/08/29 05:35:52;;;;;;;;;;;;;;;16.59;55.05;101107.06;4963357;28;6978;-74
2022/08/29 05:38:18;;;;;;;;;;;;;;;16.69;54.97;101103.97;4974185;28;7042;-74
2022/08/29 05:40:44;;;;;;;;;;;;;;;16.80;55.21;101112.13;4983433;28;6847;-74
2022/08/29 05:43:10;;;;;;;;;;;;;;;16.93;54.96;101118.59;4986041;28;6783;-74
2022/08/29 05:45:37;;;;;;;;;;;;;;;17.06;55.24;101114.72;4986392;28;7022;-74
2022/08/29 05:48:06;;;;;;;;;;;;;;;17.17;54.81;101112.47;4967797;28;7991;-74
2022/08/29 05:50:43;;;;;;;;;;;;;;;17.28;54.68;101105.06;4985935;28;6796;-74
2022/08/29 05:53:11;;;;;;;;;;;;;;;17.41;54.22;101116.69;4983897;28;7418;-74
2022/08/29 05:55:42;;;;;;;;;;;;;;;17.53;54.50;101110.97;4981486;28;7130;-74
2022/08/29 05:58:08;;;;;;;;;;;;;;;17.62;54.28;101109.56;4982718;28;6792;-74
2022/08/29 06:00:41;;;;;;;;;;;;;;;17.74;54.36;101115.94;4983690;28;7101;-74
2022/08/29 06:03:08;;;;;;;;;;;;;;;17.81;53.80;101117.91;4976751;28;7172;-74
2022/08/29 06:05:34;;;;;;;;;;;;;;;17.93;54.38;101127.75;4979222;28;7096;-74
2022/08/29 06:08:03;;;;;;;;;;;;;;;18.01;54.08;101118.50;4979965;28;6784;-74
2022/08/29 06:10:28;;;;;;;;;;;;;;;18.09;53.72;101118.75;4963716;28;7058;-74
2022/08/29 06:12:54;;;;;;;;;;;;;;;18.16;53.65;101125.88;4985478;28;7833;-74
2022/08/29 06:15:21;;;;;;;;;;;;;;;18.22;53.31;101129.44;4981492;28;6803;-74
2022/08/29 06:17:47;;;;;;;;;;;;;;;18.28;52.99;101130.50;4980181;28;6972;-74
2022/08/29 06:20:13;;;;;;;;;;;;;;;18.35;53.37;101128.97;4950124;28;6850;-74
2022/08/29 06:22:39;;;;;;;;;;;;;;;18.40;53.45;101127.38;4964076;28;7232;-74
2022/08/29 06:25:07;;;;;;;;;;;;;;;18.45;53.04;101122.31;4979474;28;6988;-74
2022/08/29 06:27:32;;;;;;;;;;;;;;;18.51;52.88;101129.38;4981175;28;6986;-74
2022/08/29 06:29:58;;;;;;;;;;;;;;;18.55;53.04;101129.50;4986801;28;6780;-74
2022/08/29 06:32:24;;;;;;;;;;;;;;;18.59;53.02;101133.06;4963091;28;8408;-73
2022/08/29 06:34:50;;;;;;;;;;;;;;;18.64;52.88;101135.78;4979969;28;6784;-74
2022/08/29 06:37:16;;;;;;;;;;;;;;;18.66;52.62;101135.00;4973230;28;7030;-74
2022/08/29 06:39:42;;;;;;;;;;;;;;;18.70;52.90;101128.16;4979208;28;6784;-74
2022/08/29 06:42:08;;;;;;;;;;;;;;;18.72;52.17;101129.94;4962535;28;6959;-74
2022/08/29 06:44:34;;;;;;;;;;;;;;;18.77;52.62;101136.97;4970782;28;6975;-75
2022/08/29 06:46:59;;;;;;;;;;;;;;;18.82;52.77;101135.38;4979732;28;7163;-75
2022/08/29 06:49:26;;;;;;;;;;;;;;;18.84;52.42;101141.50;4982795;28;7900;-75
2022/08/29 06:51:52;;;;;;;;;;;;;;;18.88;52.13;101130.34;4978414;28;7595;-75
2022/08/29 06:54:22;;;;;;;;;;;;;;;18.94;52.83;101129.63;4961556;28;7137;-75
2022/08/29 06:56:49;;;;;;;;;;;;;;;19.06;52.25;101126.50;4978171;28;6928;-75
2022/08/29 06:59:16;;;;;;;;;;;;;;;19.23;52.94;101125.19;4977794;28;6796;-75
2022/08/29 07:01:43;;;;;;;;;;;;;;;19.40;52.60;101135.06;4979365;28;6796;-75
2022/08/29 07:04:11;;;;;;;;;;;;;;;19.61;52.58;101132.09;4976462;28;6828;-75
2022/08/29 07:06:38;;;;;;;;;;;;;;;19.82;51.80;101130.81;4983112;28;6796;-75
2022/08/29 07:09:06;;;;;;;;;;;;;;;20.01;51.99;101123.41;4980377;28;6800;-75
2022/08/29 07:11:33;;;;;;;;;;;;;;;20.21;51.27;101129.03;4981632;28;7153;-75
2022/08/29 07:14:03;;;;;;;;;;;;;;;20.35;51.11;101122.34;4981033;28;7011;-75
2022/08/29 07:16:31;;;;;;;;;;;;;;;20.55;50.95;101121.84;4969001;28;6995;-75
2022/08/29 07:18:56;;;;;;;;;;;;;;;20.73;50.63;101121.31;4963321;28;6796;-75
2022/08/29 07:21:25;;;;;;;;;;;;;;;20.94;50.52;101123.44;4981490;28;6843;-74
2022/08/29 07:23:53;;;;;;;;;;;;;;;21.10;49.86;101126.28;4979897;28;6784;-75
2022/08/29 07:26:28;;;;;;;;;;;;;;;21.26;49.75;101126.53;4963298;28;7041;-74
2022/08/29 07:28:59;;;;;;;;;;;;;;;21.42;49.49;101131.13;4982431;28;6938;-74
2022/08/29 07:31:26;;;;;;;;;;;;;;;21.60;48.94;101124.41;4983736;28;7055;-74
2022/08/29 07:33:51;;;;;;;;;;;;;;;21.71;48.41;101122.84;4981937;28;6820;-75
2022/08/29 07:36:17;;;;;;;;;;;;;;;21.89;48.42;101126.56;4978368;28;7197;-75
2022/08/29 07:38:43;;;;;;;;;;;;;;;22.09;47.95;101125.94;4967532;28;7364;-75
2022/08/29 07:41:13;;;;;;;;;;;;;;;22.31;47.72;101124.44;4981551;28;7125;-75
2022/08/29 07:43:39;;;;;;;;;;;;;;;22.50;47.18;101130.75;4980797;28;6804;-75
2022/08/29 07:46:15;;;;;;;;;;;;;;;22.68;46.73;101130.09;4981132;28;7146;-75
2022/08/29 07:48:42;;;;;;;;;;;;;;;22.76;45.67;101127.53;4977887;28;6795;-74
2022/08/29 07:51:12;;;;;;;;;;;;;;;22.75;45.17;101124.06;4983811;28;6788;-74
2022/08/29 07:53:38;;;;;;;;;;;;;;;22.74;45.20;101124.94;4980322;28;6860;-74
2022/08/29 07:56:06;;;;;;;;;;;;;;;22.76;45.40;101127.53;4982837;28;6784;-74
2022/08/29 07:58:32;;;;;;;;;;;;;;;22.81;45.40;101127.56;4975133;28;7221;-75
2022/08/29 08:00:58;;;;;;;;;;;;;;;22.85;44.90;101119.78;4974631;28;6848;-75
2022/08/29 08:03:25;;;;;;;;;;;;;;;22.93;44.95;101118.97;4977709;28;6764;-74
2022/08/29 08:05:52;;;;;;;;;;;;;;;22.99;44.43;101121.66;4964206;28;7088;-75
2022/08/29 08:08:18;;;;;;;;;;;;;;;23.07;44.39;101126.91;4977802;28;7136;-75
2022/08/29 08:10:43;;;;;;;;;;;;;;;23.20;44.30;101123.53;4972982;28;6780;-75
2022/08/29 08:13:09;;;;;;;;;;;;;;;23.29;43.49;101130.59;4975261;28;6880;-75
2022/08/29 08:15:37;;;;;;;;;;;;;;;23.37;43.59;101128.91;4981587;28;6991;-75
2022/08/29 08:18:03;;;;;;;;;;;;;;;23.44;43.48;101124.59;4982226;28;6968;-75
2022/08/29 08:20:29;;;;;;;;;;;;;;;23.44;42.98;101130.69;4981488;28;6804;-74
2022/08/29 08:22:55;;;;;;;;;;;;;;;23.44;43.46;101132.44;4982876;28;7158;-76
2022/08/29 08:25:22;;;;;;;;;;;;;;;23.43;42.92;101131.56;4980694;28;7165;-75
2022/08/29 08:27:48;;;;;;;;;;;;;;;23.42;42.80;101129.81;4976681;28;6804;-75
2022/08/29 08:30:14;;;;;;;;;;;;;;;23.42;42.54;101129.81;4983526;28;6867;-75
2022/08/29 08:32:41;;;;;;;;;;;;;;;23.46;42.79;101130.72;4981402;28;6864;-75
2022/08/29 08:35:07;;;;;;;;;;;;;;;23.49;42.61;101133.34;4966995;28;6866;-75
2022/08/29 08:37:33;;;;;;;;;;;;;;;23.56;42.52;101139.47;4962782;28;7291;-76
2022/08/29 08:39:59;;;;;;;;;;;;;;;23.61;42.12;101139.50;4981803;28;6776;-75
2022/08/29 08:42:42;;;;;;;;;;;;;;;23.61;42.29;101143.00;4967271;28;7389;-75
2022/08/29 08:45:11;;;;;;;;;;;;;;;23.68;41.92;101138.66;4985775;28;6788;-75
2022/08/29 08:47:53;;;;;;;;;;;;;;;23.76;42.23;101129.13;4982743;28;6953;-75
2022/08/29 08:50:59;;;;;;;;;;;;;;;23.92;41.52;101129.19;4975250;28;7198;-75
2022/08/29 08:53:45;;;;;;;;;;;;;;;24.05;41.73;101135.41;4995117;28;7207;-75
2022/08/29 08:56:44;;;;;;;;;;;;;;;24.22;41.72;101120.59;4991573;28;6958;-75
2022/08/29 08:59:38;;;;;;;;;;;;;;;24.40;41.00;101129.38;4978840;28;7197;-75
2022/08/29 09:02:53;;;;;;;;;;;;;;;24.53;40.63;101135.50;4984581;28;6796;-76
2022/08/29 09:05:36;;;;;;;;;;;;;;;24.55;39.40;101133.75;4991885;28;7239;-76
2022/08/29 09:08:46;;;;;;;;;;;;;;;24.53;39.36;101136.41;4988429;28;7513;-76
2022/08/29 09:11:18;;;;;;;;;;;;;;;24.53;39.87;101133.78;4980849;28;7030;-75
2022/08/29 09:13:57;;;;;;;;;;;;;;;24.55;39.63;101137.25;4989770;28;7793;-75
2022/08/29 09:16:27;;;;;;;;;;;;;;;24.65;39.69;101137.28;4988981;28;7251;-76
2022/08/29 09:19:00;;;;;;;;;;;;;;;24.78;39.65;101132.97;4983482;28;7129;-76
2022/08/29 09:21:28;;;;;;;;;;;;;;;24.93;39.38;101137.34;4963341;28;7344;-76
2022/08/29 09:23:58;;;;;;;;;;;;;;;25.10;39.63;101135.56;4986586;28;7287;-74
2022/08/29 09:26:26;;;;;;;;;;;;;;;25.25;38.95;101144.28;4989340;28;6882;-75
2022/08/29 09:28:52;;;;;;;;;;;;;;;25.36;38.61;101133.78;4988292;28;6862;-75
2022/08/29 09:31:25;;;;;;;;;;;;;;;25.57;38.83;101132.03;4989918;28;7218;-76
2022/08/29 09:33:55;;;;;;;;;;;;;;;25.83;38.02;101131.94;4989969;28;6804;-75
2022/08/29 09:36:47;;;;;;;;;;;;;;;26.12;37.96;101124.78;4987888;28;6791;-75
2022/08/29 09:39:30;;;;;;;;;;;;;;;26.45;37.22;101125.50;4969556;28;7278;-75
2022/08/29 09:42:11;;;;;;;;;;;;;;;26.79;36.16;101124.38;4982155;28;7150;-75
2022/08/29 09:44:38;;;;;;;;;;;;;;;27.28;35.69;101129.22;4971221;28;6815;-75
2022/08/29 09:47:12;;;;;;;;;;;;;;;27.86;35.20;101121.56;4986801;28;7240;-75
2022/08/29 09:49:58;;;;;;;;;;;;;;;28.53;34.74;101115.38;4986656;28;7948;-75
2022/08/29 09:52:25;;;;;;;;;;;;;;;29.28;34.03;101100.94;4986913;28;7254;-75
2022/08/29 09:54:51;;;;;;;;;;;;;;;30.10;32.89;101092.25;4968480;28;7055;-74
2022/08/29 09:57:28;;;;;;;;;;;;;;;31.03;31.67;101098.81;4986008;28;7197;-75
2022/08/29 10:00:17;;;;;;;;;;;;;;;31.91;30.84;101080.50;4971868;28;7145;-77
2022/08/29 10:02:42;;;;;;;;;;;;;;;32.49;29.90;101088.41;4951421;28;11655;-76
2022/08/29 10:05:39;;;;;;;;;;;;;;;33.01;29.07;101076.06;4971669;28;6964;-76
2022/08/29 10:08:23;;;;;;;;;;;;;;;33.34;28.22;101084.59;4987906;28;6828;-77
2022/08/29 10:11:01;;;;;;;;;;;;;;;33.36;27.25;101089.81;4961549;28;7295;-77
2022/08/29 10:14:01;;;;;;;;;;;;;;;33.18;27.65;101086.94;4989155;28;6824;-76
2022/08/29 10:16:26;;;;;;;;;;;;;;;33.38;27.74;101083.53;4988220;28;7212;-76
2022/08/29 10:19:02;;;;;;;;;;;;;;;33.51;26.77;101077.78;4992536;28;6926;-76
2022/08/29 10:21:52;;;;;;;;;;;;;;;33.28;26.96;101081.31;4986579;28;7149;-76
2022/08/29 10:25:00;;;;;;;;;;;;;;;33.05;27.42;101083.88;4985537;28;6820;-76
2022/08/29 10:27:56;;;;;;;;;;;;;;;32.79;27.19;101075.00;4983283;28;9875;-76
2022/08/29 10:30:36;;;;;;;;;;;;;;;32.87;27.33;101074.72;4972018;28;6815;-76
2022/08/29 10:33:28;;;;;;;;;;;;;;;33.03;26.79;101075.09;4989415;28;6840;-76
2022/08/29 10:36:13;;;;;;;;;;;;;;;32.73;26.82;101083.16;4982667;28;7224;-77
2022/08/29 10:38:45;;;;;;;;;;;;;;;32.20;26.84;101086.66;4984584;28;6978;-77
2022/08/29 10:41:30;;;;;;;;;;;;;;;32.00;27.30;101074.91;4988727;28;7230;-76
2022/08/29 10:44:05;;;;;;;;;;;;;;;31.91;27.51;101073.44;4984228;28;7045;-76
2022/08/29 10:47:02;;;;;;;;;;;;;;;31.75;27.36;101064.16;4986070;28;7161;-77
2022/08/29 10:49:52;;;;;;;;;;;;;;;31.63;27.80;101062.75;4987594;28;6891;-76
2022/08/29 10:52:46;;;;;;;;;;;;;;;31.65;27.55;101060.94;4989277;28;7201;-76
2022/08/29 10:55:56;;;;;;;;;;;;;;;31.57;27.78;101061.16;4986789;28;7166;-76
2022/08/29 10:59:06;;;;;;;;;;;;;;;31.35;27.80;101056.50;4989206;28;7305;-76
2022/08/29 11:01:48;;;;;;;;;;;;;;;31.60;27.99;101063.75;4916060;28;7201;-76
2022/08/29 11:04:22;;;;;;;;;;;;;;;31.95;27.50;101050.34;4991989;28;6976;-76
2022/08/29 11:07:15;;;;;;;;;;;;;;;32.08;27.39;101041.06;4983331;28;6815;-76
2022/08/29 11:10:11;;;;;;;;;;;;;;;31.86;27.36;101051.47;4983330;28;7217;-76
2022/08/29 11:13:08;;;;;;;;;;;;;;;31.22;27.50;101065.69;4987774;28;7185;-76
2022/08/29 11:16:18;;;;;;;;;;;;;;;30.83;27.88;101058.78;4952583;28;6997;-76
2022/08/29 11:19:01;;;;;;;;;;;;;;;30.69;28.82;101056.50;4989047;28;7002;-76
2022/08/29 11:22:02;;;;;;;;;;;;;;;30.41;28.00;101046.59;4982626;28;6808;-76
2022/08/29 11:24:33;;;;;;;;;;;;;;;30.08;28.09;101055.28;4984044;28;6880;-76
2022/08/29 11:27:05;;;;;;;;;;;;;;;29.80;28.59;101045.34;4983032;28;6857;-76
2022/08/29 11:29:58;;;;;;;;;;;;;;;29.60;28.83;101045.78;4987418;28;6872;-76
2022/08/29 11:32:45;;;;;;;;;;;;;;;29.52;29.19;101044.16;4987938;28;7173;-76
2022/08/29 11:35:19;;;;;;;;;;;;;;;29.41;29.16;101050.53;4988116;28;6898;-76
2022/08/29 11:38:29;;;;;;;;;;;;;;;29.30;29.34;101045.50;4981180;28;7213;-77
2022/08/29 11:41:22;;;;;;;;;;;;;;;29.34;28.92;101037.47;4987996;28;6820;-76
2022/08/29 11:43:56;;;;;;;;;;;;;;;29.92;29.19;101031.84;4987067;28;7722;-76
2022/08/29 11:46:45;;;;;;;;;;;;;;;30.80;28.05;101033.25;4968927;28;8322;-76
2022/08/29 11:49:30;;;;;;;;;;;;;;;31.08;27.41;101031.66;4965799;28;7049;-76
2022/08/29 11:52:13;;;;;;;;;;;;;;;30.85;27.66;101036.66;4985355;28;6800;-75
2022/08/29 11:54:44;;;;;;;;;;;;;;;30.48;27.44;101032.31;4971411;28;6997;-75
2022/08/29 11:57:09;;;;;;;;;;;;;;;30.17;28.31;101033.94;4986138;28;6943;-76
2022/08/29 11:59:44;;;;;;;;;;;;;;;29.77;28.08;101029.56;4975691;28;6980;-75
2022/08/29 12:02:29;;;;;;;;;;;;;;;29.35;28.93;101017.22;4985198;28;7187;-76
2022/08/29 12:05:13;;;;;;;;;;;;;;;29.16;28.22;101022.00;4990141;28;6951;-76
2022/08/29 12:08:02;;;;;;;;;;;;;;;29.01;28.71;101025.81;4981019;28;7189;-76
2022/08/29 12:10:49;;;;;;;;;;;;;;;28.94;29.21;101019.81;4981786;28;6803;-76
2022/08/29 12:13:46;;;;;;;;;;;;;;;28.94;29.09;101023.28;4971021;28;7008;-75
2022/08/29 12:16:45;;;;;;;;;;;;;;;29.16;29.87;101014.94;4976344;28;7836;-75
2022/08/29 12:20:06;;;;;;;;;;;;;;;29.61;29.34;101018.47;4983556;28;6900;-76
2022/08/29 12:22:50;;;;;;;;;;;;;;;29.90;28.50;101014.28;4944442;28;6888;-76
2022/08/29 12:25:42;;;;;;;;;;;;;;;29.93;28.26;101014.22;4964557;28;7233;-76
2022/08/29 12:28:22;;;;;;;;;;;;;;;30.42;27.49;101009.53;4972495;28;6868;-76
2022/08/29 12:30:57;;;;;;;;;;;;;;;31.12;27.69;100996.25;4985354;28;7296;-76
2022/08/29 12:33:43;;;;;;;;;;;;;;;31.75;26.02;100995.28;4991580;28;6804;-77
2022/08/29 12:36:38;;;;;;;;;;;;;;;32.05;25.60;100995.25;4989787;28;6982;-76
2022/08/29 12:39:53;;;;;;;;;;;;;;;31.94;24.72;100992.97;4985340;28;6900;-76
2022/08/29 12:43:08;;;;;;;;;;;;;;;31.77;25.56;100988.16;4931220;28;7016;-76
2022/08/29 12:45:40;;;;;;;;;;;;;;;32.15;24.78;100980.75;4985217;28;6847;-76
2022/08/29 12:48:39;;;;;;;;;;;;;;;32.38;24.53;100981.81;4984411;28;6796;-76
2022/08/29 12:51:05;;;;;;;;;;;;;;;32.03;24.75;100984.72;4989343;28;7744;-76
2022/08/29 12:53:33;;;;;;;;;;;;;;;31.55;24.99;100988.84;4989845;28;7095;-76
2022/08/29 12:56:21;;;;;;;;;;;;;;;30.99;25.25;100990.44;4993634;28;7217;-76
2022/08/29 12:58:59;;;;;;;;;;;;;;;30.81;25.92;100992.69;4982762;28;7390;-76
2022/08/29 13:01:36;;;;;;;;;;;;;;;30.99;25.78;100988.66;4984986;28;6944;-77
2022/08/29 13:04:20;;;;;;;;;;;;;;;31.13;25.62;100985.63;4992342;28;7408;-76
2022/08/29 13:06:59;;;;;;;;;;;;;;;30.89;26.14;100984.53;4966376;28;7330;-77
2022/08/29 13:09:33;;;;;;;;;;;;;;;30.61;25.68;100979.97;4973223;28;7342;-76
2022/08/29 13:12:26;;;;;;;;;;;;;;;30.52;26.69;100989.03;4989695;28;7915;-76
2022/08/29 13:14:59;;;;;;;;;;;;;;;30.67;26.29;100976.31;4968104;28;6804;-76
2022/08/29 13:17:36;;;;;;;;;;;;;;;30.87;25.98;100971.34;4985715;28;7232;-76
2022/08/29 13:20:42;;;;;;;;;;;;;;;30.97;25.83;100971.09;4973404;28;7413;-76